Time;durP1;ratioP1;P1;durP2;ratioP2;P2;SDS_P1;SDS_P2;PMS_P1;PMS_P2;Temp;Humidity;BMP_temperature;BMP_pressure;BME280_temperature;BME280_humidity;BME280_pressure;Samples;Min_cycle;Max_cycle;Signal;HPM_P1;HPM_P2
2024/04/01 00:00:58;;;;;;;;;;;;;;;7.77;100.00;98432.78;5033100;28;20367;-73
2024/04/01 00:03:23;;;;;;;;;;;;;;;7.79;100.00;98436.88;5033025;28;19913;-73
2024/04/01 00:05:56;;;;;;;;;;;;;;;7.77;100.00;98432.78;5033025;28;20007;-73
2024/04/01 00:08:21;;;;;;;;;;;;;;;7.76;100.00;98426.59;5032996;28;19971;-73
2024/04/01 00:10:50;;;;;;;;;;;;;;;7.79;100.00;98431.53;5049559;28;19913;-73
2024/04/01 00:13:16;;;;;;;;;;;;;;;7.81;100.00;98429.47;5033573;28;19913;-72
2024/04/01 00:15:42;;;;;;;;;;;;;;;7.79;100.00;98420.81;5032908;28;20336;-74
2024/04/01 00:18:07;;;;;;;;;;;;;;;7.77;100.00;98422.88;5033208;28;20255;-74
2024/04/01 00:20:33;;;;;;;;;;;;;;;7.76;100.00;98420.44;5032973;28;20245;-73
2024/04/01 00:23:02;;;;;;;;;;;;;;;7.74;100.00;98407.28;5032966;28;20370;-74
2024/04/01 00:25:27;;;;;;;;;;;;;;;7.72;100.00;98412.81;5032898;28;19917;-74
2024/04/01 00:27:53;;;;;;;;;;;;;;;7.70;100.00;98412.25;5033070;28;20393;-74
2024/04/01 00:30:18;;;;;;;;;;;;;;;7.65;100.00;98413.91;5032921;28;19945;-74
2024/04/01 00:32:44;;;;;;;;;;;;;;;7.63;100.00;98407.97;5032835;28;20351;-74
2024/04/01 00:35:11;;;;;;;;;;;;;;;7.62;100.00;98404.47;5032837;28;19913;-74
2024/04/01 00:37:37;;;;;;;;;;;;;;;7.63;100.00;98406.09;5048864;28;19940;-74
2024/04/01 00:40:03;;;;;;;;;;;;;;;7.66;100.00;98405.66;5032713;28;19913;-73
2024/04/01 00:42:29;;;;;;;;;;;;;;;7.69;100.00;98409.75;5048720;28;19955;-74
2024/04/01 00:44:54;;;;;;;;;;;;;;;7.72;100.00;98401.31;5032688;28;19957;-74
2024/04/01 00:47:20;;;;;;;;;;;;;;;7.71;100.00;98405.03;5032623;28;19952;-74
2024/04/01 00:49:45;;;;;;;;;;;;;;;7.75;100.00;98395.53;5033264;28;19959;-73
2024/04/01 00:52:13;;;;;;;;;;;;;;;7.75;100.00;98398.19;5048690;28;20371;-74
2024/04/01 00:54:39;;;;;;;;;;;;;;;7.74;100.00;98395.75;5032456;28;20348;-74
2024/04/01 00:57:04;;;;;;;;;;;;;;;7.71;100.00;98402.34;5036253;28;19924;-74
2024/04/01 00:59:30;;;;;;;;;;;;;;;7.72;100.00;98390.59;5036370;28;20320;-73
2024/04/01 01:01:55;;;;;;;;;;;;;;;7.73;100.00;98392.25;5036188;28;19963;-74
2024/04/01 01:04:21;;;;;;;;;;;;;;;7.74;100.00;98393.88;5035955;28;19928;-74
2024/04/01 01:06:46;;;;;;;;;;;;;;;7.68;100.00;98395.56;5036080;28;19921;-74
2024/04/01 01:09:12;;;;;;;;;;;;;;;7.67;100.00;98395.78;5036200;28;19913;-74
2024/04/01 01:11:38;;;;;;;;;;;;;;;7.63;100.00;98391.91;5036246;28;19917;-73
2024/04/01 01:14:04;;;;;;;;;;;;;;;7.62;100.00;98387.56;5035756;28;20338;-73
2024/04/01 01:16:30;;;;;;;;;;;;;;;7.63;100.00;98378.53;5035985;28;19999;-73
2024/04/01 01:18:55;;;;;;;;;;;;;;;7.62;100.00;98380.41;5035936;28;19913;-74
2024/04/01 01:21:21;;;;;;;;;;;;;;;7.64;100.00;98382.84;5035991;28;19920;-73
2024/04/01 01:23:46;;;;;;;;;;;;;;;7.64;100.00;98377.50;5035878;28;19920;-74
2024/04/01 01:26:12;;;;;;;;;;;;;;;7.63;100.00;98374.00;5035909;28;19920;-73
2024/04/01 01:28:39;;;;;;;;;;;;;;;7.61;100.00;98376.06;5068137;28;20279;-74
2024/04/01 01:31:05;;;;;;;;;;;;;;;7.60;100.00;98374.44;5035707;28;19917;-73
2024/04/01 01:33:30;;;;;;;;;;;;;;;7.62;100.00;98376.88;5035633;28;19917;-74
2024/04/01 01:35:56;;;;;;;;;;;;;;;7.64;100.00;98377.50;5068769;28;19936;-74
2024/04/01 01:38:21;;;;;;;;;;;;;;;7.66;100.00;98367.41;5035278;28;19913;-74
2024/04/01 01:40:47;;;;;;;;;;;;;;;7.64;100.00;98369.47;5035539;28;20352;-73
2024/04/01 01:43:12;;;;;;;;;;;;;;;7.62;100.00;98372.38;5035498;28;19913;-74
2024/04/01 01:45:38;;;;;;;;;;;;;;;7.62;100.00;98364.34;5068263;28;19924;-73
2024/04/01 01:48:04;;;;;;;;;;;;;;;7.60;100.00;98368.28;5035462;28;20236;-73
2024/04/01 01:50:29;;;;;;;;;;;;;;;7.58;100.00;98365.00;5035307;28;19913;-74
2024/04/01 01:52:55;;;;;;;;;;;;;;;7.55;100.00;98362.75;5035635;28;19920;-74
2024/04/01 01:55:20;;;;;;;;;;;;;;;7.52;100.00;98371.22;5035221;28;20356;-74
2024/04/01 01:57:46;;;;;;;;;;;;;;;7.50;100.00;98368.72;5035014;28;19913;-74
2024/04/01 02:00:14;;;;;;;;;;;;;;;7.45;100.00;98380.06;5035150;28;19914;-74
2024/04/01 02:02:40;;;;;;;;;;;;;;;7.44;100.00;98367.75;5034757;28;19913;-74
2024/04/01 02:05:06;;;;;;;;;;;;;;;7.45;100.00;98366.69;5034775;28;19913;-73
2024/04/01 02:07:31;;;;;;;;;;;;;;;7.46;100.00;98373.69;5067348;28;19920;-74
2024/04/01 02:09:57;;;;;;;;;;;;;;;7.46;100.00;98367.50;5035005;28;19921;-74
2024/04/01 02:12:22;;;;;;;;;;;;;;;7.48;100.00;98357.44;5035015;28;19952;-74
2024/04/01 02:14:48;;;;;;;;;;;;;;;7.47;100.00;98358.47;5034976;28;19962;-73
2024/04/01 02:17:14;;;;;;;;;;;;;;;7.46;100.00;98348.78;5067963;28;19913;-73
2024/04/01 02:19:41;;;;;;;;;;;;;;;7.44;100.00;98348.22;5035572;28;20363;-75
2024/04/01 02:22:12;;;;;;;;;;;;;;;7.48;100.00;98350.22;5036818;28;19913;-75
2024/04/01 02:24:39;;;;;;;;;;;;;;;7.53;100.00;98364.81;5051077;28;19917;-75
2024/04/01 02:27:07;;;;;;;;;;;;;;;7.52;100.00;98361.31;5034739;28;19913;-73
2024/04/01 02:29:32;;;;;;;;;;;;;;;7.50;100.00;98363.38;5034101;28;20271;-74
2024/04/01 02:31:58;;;;;;;;;;;;;;;7.44;100.00;98362.38;5034701;28;19917;-74
2024/04/01 02:34:24;;;;;;;;;;;;;;;7.39;100.00;98366.75;5034536;28;20360;-74
2024/04/01 02:36:49;;;;;;;;;;;;;;;7.37;100.00;98368.81;5034115;28;19913;-74
2024/04/01 02:39:18;;;;;;;;;;;;;;;7.37;100.00;98366.94;5035057;28;20055;-74
2024/04/01 02:41:47;;;;;;;;;;;;;;;7.30;100.00;98368.81;5033983;28;19921;-74
2024/04/01 02:44:12;;;;;;;;;;;;;;;7.25;100.00;98372.16;5034411;28;19951;-74
2024/04/01 02:46:39;;;;;;;;;;;;;;;7.26;100.00;98375.66;5050933;28;19964;-74
2024/04/01 02:49:04;;;;;;;;;;;;;;;7.26;100.00;98378.31;5034293;28;20012;-73
2024/04/01 02:51:30;;;;;;;;;;;;;;;7.20;100.00;98371.16;5034503;28;19920;-73
2024/04/01 02:53:55;;;;;;;;;;;;;;;7.28;100.00;98365.56;5034228;28;19920;-73
2024/04/01 02:56:21;;;;;;;;;;;;;;;7.38;100.00;98370.44;5034132;28;20291;-74
2024/04/01 02:58:46;;;;;;;;;;;;;;;7.39;100.00;98364.88;5034107;28;19959;-73
2024/04/01 03:01:12;;;;;;;;;;;;;;;7.37;100.00;98364.28;5034914;28;19987;-74
2024/04/01 03:03:38;;;;;;;;;;;;;;;7.44;100.00;98364.25;5033941;28;19921;-73
2024/04/01 03:06:06;;;;;;;;;;;;;;;7.45;100.00;98356.00;5033758;28;19936;-74
2024/04/01 03:08:32;;;;;;;;;;;;;;;7.47;100.00;98350.44;5033545;28;19959;-74
2024/04/01 03:10:58;;;;;;;;;;;;;;;7.49;100.00;98343.84;5033851;28;20015;-73
2024/04/01 03:13:24;;;;;;;;;;;;;;;7.50;100.00;98358.03;5034084;28;20344;-74
2024/04/01 03:15:49;;;;;;;;;;;;;;;7.48;100.00;98354.75;5033696;28;19942;-74
2024/04/01 03:18:15;;;;;;;;;;;;;;;7.49;100.00;98357.22;5032718;28;20074;-74
2024/04/01 03:20:41;;;;;;;;;;;;;;;7.49;100.00;98369.78;5033622;28;19913;-74
2024/04/01 03:23:06;;;;;;;;;;;;;;;7.46;100.00;98371.03;5033847;28;19914;-73
2024/04/01 03:25:32;;;;;;;;;;;;;;;7.48;100.00;98384.97;5033597;28;19913;-73
2024/04/01 03:28:00;;;;;;;;;;;;;;;7.45;100.00;98388.09;5033437;28;20012;-73
2024/04/01 03:30:29;;;;;;;;;;;;;;;7.40;100.00;98395.09;5049698;28;19920;-73
2024/04/01 03:32:54;;;;;;;;;;;;;;;7.35;100.00;98395.75;5033072;28;19913;-73
2024/04/01 03:35:20;;;;;;;;;;;;;;;7.34;100.00;98396.78;5034006;28;19923;-73
2024/04/01 03:37:45;;;;;;;;;;;;;;;7.36;100.00;98392.06;5033194;28;20285;-74
2024/04/01 03:40:12;;;;;;;;;;;;;;;7.38;100.00;98392.66;5033400;28;19913;-73
2024/04/01 03:42:38;;;;;;;;;;;;;;;7.38;100.00;98392.66;5049694;28;19923;-73
2024/04/01 03:45:06;;;;;;;;;;;;;;;7.38;100.00;98392.66;5033357;28;19913;-73
2024/04/01 03:47:32;;;;;;;;;;;;;;;7.37;100.00;98385.66;5032925;28;19913;-73
2024/04/01 03:49:58;;;;;;;;;;;;;;;7.32;100.00;98385.47;5033242;28;19913;-73
2024/04/01 03:52:24;;;;;;;;;;;;;;;7.29;100.00;98387.75;5049490;28;19936;-73
2024/04/01 03:54:49;;;;;;;;;;;;;;;7.29;100.00;98387.75;5049677;28;20352;-73
2024/04/01 03:57:16;;;;;;;;;;;;;;;7.30;100.00;98384.88;5033568;28;19959;-73
2024/04/01 03:59:41;;;;;;;;;;;;;;;7.31;100.00;98383.03;5032991;28;19979;-73
2024/04/01 04:02:07;;;;;;;;;;;;;;;7.31;100.00;98375.00;5049289;28;20383;-73
2024/04/01 04:04:33;;;;;;;;;;;;;;;7.31;100.00;98381.19;5049509;28;20393;-73
2024/04/01 04:06:58;;;;;;;;;;;;;;;7.30;100.00;98382.19;5032937;28;19917;-73
2024/04/01 04:09:26;;;;;;;;;;;;;;;7.32;100.00;98372.13;5033634;28;19913;-73
2024/04/01 04:11:51;;;;;;;;;;;;;;;7.31;100.00;98375.00;5032770;28;19913;-73
2024/04/01 04:14:17;;;;;;;;;;;;;;;7.29;100.00;98375.22;5049059;28;19920;-73
2024/04/01 04:16:43;;;;;;;;;;;;;;;7.27;100.00;98386.09;5032784;28;19914;-73
2024/04/01 04:19:09;;;;;;;;;;;;;;;7.26;100.00;98383.66;5033728;28;19951;-73
2024/04/01 04:21:34;;;;;;;;;;;;;;;7.25;100.00;98390.88;5032989;28;19936;-73
2024/04/01 04:24:00;;;;;;;;;;;;;;;7.29;100.00;98398.47;5032919;28;20374;-73
2024/04/01 04:26:25;;;;;;;;;;;;;;;7.33;100.00;98395.16;5032843;28;19913;-73
2024/04/01 04:28:51;;;;;;;;;;;;;;;7.38;100.00;98392.66;5049399;28;19947;-73
2024/04/01 04:31:17;;;;;;;;;;;;;;;7.39;100.00;98394.28;5036914;28;19917;-74
2024/04/01 04:33:42;;;;;;;;;;;;;;;7.39;100.00;98388.94;5036880;28;19920;-73
2024/04/01 04:36:10;;;;;;;;;;;;;;;7.40;100.00;98389.75;5036786;28;19975;-73
2024/04/01 04:38:36;;;;;;;;;;;;;;;7.41;100.00;98380.69;5036044;28;19913;-73
2024/04/01 04:41:01;;;;;;;;;;;;;;;7.40;100.00;98379.88;5053059;28;19920;-74
2024/04/01 04:43:27;;;;;;;;;;;;;;;7.37;100.00;98380.31;5036735;28;19987;-73
2024/04/01 04:45:52;;;;;;;;;;;;;;;7.36;100.00;98372.53;5036721;28;20395;-74
2024/04/01 04:48:18;;;;;;;;;;;;;;;7.37;100.00;98366.13;5037678;28;19923;-74
2024/04/01 04:50:43;;;;;;;;;;;;;;;7.40;100.00;98368.38;5036875;28;20410;-73
2024/04/01 04:53:08;;;;;;;;;;;;;;;7.40;100.00;98368.38;5036485;28;19914;-73
2024/04/01 04:55:34;;;;;;;;;;;;;;;7.38;100.00;98373.09;5053204;28;19917;-74
2024/04/01 04:57:59;;;;;;;;;;;;;;;7.35;100.00;98370.88;5036118;28;20271;-74
2024/04/01 05:00:25;;;;;;;;;;;;;;;7.31;100.00;98372.34;5036362;28;19913;-74
2024/04/01 05:02:51;;;;;;;;;;;;;;;7.29;100.00;98371.72;5036353;28;19913;-73
2024/04/01 05:05:17;;;;;;;;;;;;;;;7.34;100.00;98372.72;5036265;28;19920;-73
2024/04/01 05:07:44;;;;;;;;;;;;;;;7.32;100.00;98369.44;5052528;28;19971;-73
2024/04/01 05:10:11;;;;;;;;;;;;;;;7.35;100.00;98374.34;5036062;28;19956;-73
2024/04/01 05:12:37;;;;;;;;;;;;;;;7.36;100.00;98381.34;5068284;28;19913;-73
2024/04/01 05:15:05;;;;;;;;;;;;;;;7.40;100.00;98374.53;5052759;28;19924;-73
2024/04/01 05:17:34;;;;;;;;;;;;;;;7.40;100.00;98371.88;5035435;28;20351;-73
2024/04/01 05:20:04;;;;;;;;;;;;;;;7.37;100.00;98372.28;5036464;28;19913;-73
2024/04/01 05:22:29;;;;;;;;;;;;;;;7.31;100.00;98375.81;5035750;28;20359;-74
2024/04/01 05:24:55;;;;;;;;;;;;;;;7.31;100.00;98375.00;5035931;28;19921;-74
2024/04/01 05:27:21;;;;;;;;;;;;;;;7.31;100.00;98373.16;5036079;28;19975;-74
2024/04/01 05:30:02;;;;;;;;;;;;;;;7.30;100.00;98374.16;5035679;28;19917;-73
2024/04/01 05:32:29;;;;;;;;;;;;;;;7.30;100.00;98378.69;5051772;28;19923;-73
2024/04/01 05:34:54;;;;;;;;;;;;;;;7.27;100.00;98372.75;5035717;28;19921;-74
2024/04/01 05:37:22;;;;;;;;;;;;;;;7.29;100.00;98383.22;5051989;28;19917;-74
2024/04/01 05:39:47;;;;;;;;;;;;;;;7.27;100.00;98386.09;5035803;28;19913;-74
2024/04/01 05:42:13;;;;;;;;;;;;;;;7.27;100.00;98382.63;5050939;28;20282;-74
2024/04/01 05:44:38;;;;;;;;;;;;;;;7.29;100.00;98391.25;5035562;28;19917;-73
2024/04/01 05:47:04;;;;;;;;;;;;;;;7.29;100.00;98388.59;5035499;28;19913;-74
2024/04/01 05:49:29;;;;;;;;;;;;;;;7.33;100.00;98392.47;5035485;28;19917;-74
2024/04/01 05:51:55;;;;;;;;;;;;;;;7.34;100.00;98387.94;5051690;28;19940;-74
2024/04/01 05:54:20;;;;;;;;;;;;;;;7.33;100.00;98394.31;5035429;28;19920;-73
2024/04/01 05:56:46;;;;;;;;;;;;;;;7.34;100.00;98390.63;5051440;28;20004;-74
2024/04/01 05:59:11;;;;;;;;;;;;;;;7.35;100.00;98395.75;5035312;28;20355;-73
2024/04/01 06:01:36;;;;;;;;;;;;;;;7.36;100.00;98399.25;5035318;28;19913;-74
2024/04/01 06:04:02;;;;;;;;;;;;;;;7.36;100.00;98399.25;5035265;28;20331;-73
2024/04/01 06:06:28;;;;;;;;;;;;;;;7.37;100.00;98407.03;5051596;28;19921;-74
2024/04/01 06:08:54;;;;;;;;;;;;;;;7.37;100.00;98407.03;5035136;28;19924;-74
2024/04/01 06:11:19;;;;;;;;;;;;;;;7.42;100.00;98409.91;5035103;28;19913;-74
2024/04/01 06:13:45;;;;;;;;;;;;;;;7.43;100.00;98405.38;5035063;28;20016;-74
2024/04/01 06:16:11;;;;;;;;;;;;;;;7.44;100.00;98410.53;5035049;28;20289;-73
2024/04/01 06:18:37;;;;;;;;;;;;;;;7.46;100.00;98416.47;5050889;28;19925;-74
2024/04/01 06:21:03;;;;;;;;;;;;;;;7.48;100.00;98409.03;5051456;28;19913;-73
2024/04/01 06:23:28;;;;;;;;;;;;;;;7.51;100.00;98412.34;5035039;28;19983;-74
2024/04/01 06:25:54;;;;;;;;;;;;;;;7.49;100.00;98405.34;5034670;28;19917;-74
2024/04/01 06:28:19;;;;;;;;;;;;;;;7.49;100.00;98413.38;5034645;28;20335;-74
2024/04/01 06:30:47;;;;;;;;;;;;;;;7.50;100.00;98411.50;5034644;28;19913;-74
2024/04/01 06:33:13;;;;;;;;;;;;;;;7.50;100.00;98414.19;5034314;28;19917;-74
2024/04/01 06:35:38;;;;;;;;;;;;;;;7.49;100.00;98408.03;5067894;28;19917;-74
2024/04/01 06:38:05;;;;;;;;;;;;;;;7.52;100.00;98416.66;5034244;28;20372;-74
2024/04/01 06:40:33;;;;;;;;;;;;;;;7.55;100.00;98417.03;5067194;28;19939;-74
2024/04/01 06:42:59;;;;;;;;;;;;;;;7.59;100.00;98420.91;5034962;28;19917;-74
2024/04/01 06:45:24;;;;;;;;;;;;;;;7.67;100.00;98428.72;5034482;28;19913;-73
2024/04/01 06:47:50;;;;;;;;;;;;;;;7.78;100.00;98424.53;5034327;28;20019;-74
2024/04/01 06:50:15;;;;;;;;;;;;;;;7.83;100.00;98424.72;5034361;28;19913;-74
2024/04/01 06:52:41;;;;;;;;;;;;;;;7.90;100.00;98420.13;5034265;28;19917;-73
2024/04/01 06:55:06;;;;;;;;;;;;;;;7.89;100.00;98421.16;5033982;28;19917;-73
2024/04/01 06:57:34;;;;;;;;;;;;;;;7.85;100.00;98414.59;5033942;28;19990;-73
2024/04/01 06:59:59;;;;;;;;;;;;;;;7.84;100.00;98423.66;5066815;28;19947;-72
2024/04/01 07:02:25;;;;;;;;;;;;;;;7.85;100.00;98416.47;5033921;28;19971;-72
2024/04/01 07:04:54;;;;;;;;;;;;;;;7.83;100.00;98422.03;5050469;28;19917;-72
2024/04/01 07:07:19;;;;;;;;;;;;;;;7.84;100.00;98433.56;5033643;28;20004;-73
2024/04/01 07:09:45;;;;;;;;;;;;;;;7.85;100.00;98432.50;5033913;28;20403;-72
2024/04/01 07:12:11;;;;;;;;;;;;;;;7.87;100.00;98433.13;5034527;28;20000;-73
2024/04/01 07:14:36;;;;;;;;;;;;;;;7.82;100.00;98431.09;5053790;28;19959;-73
2024/04/01 07:17:02;;;;;;;;;;;;;;;7.78;100.00;98429.91;5035564;28;19919;-72
2024/04/01 07:19:27;;;;;;;;;;;;;;;7.74;100.00;98439.38;5033842;28;19916;-72
2024/04/01 07:21:53;;;;;;;;;;;;;;;7.71;100.00;98439.81;5033865;28;20000;-73
2024/04/01 07:24:18;;;;;;;;;;;;;;;7.75;100.00;98441.00;5033729;28;20368;-72
2024/04/01 07:26:44;;;;;;;;;;;;;;;7.85;100.00;98448.56;5066469;28;19942;-72
2024/04/01 07:29:09;;;;;;;;;;;;;;;7.91;100.00;98445.03;5033681;28;20297;-72
2024/04/01 07:31:35;;;;;;;;;;;;;;;7.89;100.00;98447.13;5033640;28;20336;-73
2024/04/01 07:34:01;;;;;;;;;;;;;;;7.81;100.00;98445.50;5033586;28;19917;-73
2024/04/01 07:36:27;;;;;;;;;;;;;;;7.84;100.00;98453.09;5033400;28;19936;-73
2024/04/01 07:38:52;;;;;;;;;;;;;;;7.82;100.00;98446.31;5065942;28;20450;-72
2024/04/01 07:41:18;;;;;;;;;;;;;;;7.82;100.00;98451.69;5049395;28;20012;-73
2024/04/01 07:43:44;;;;;;;;;;;;;;;7.77;100.00;98454.97;5065809;28;19913;-72
2024/04/01 07:46:09;;;;;;;;;;;;;;;7.79;100.00;98452.91;5033268;28;20291;-73
2024/04/01 07:48:37;;;;;;;;;;;;;;;7.87;100.00;98457.19;5032960;28;19963;-73
2024/04/01 07:51:05;;;;;;;;;;;;;;;8.04;100.00;98460.19;5033582;28;19913;-74
2024/04/01 07:53:32;;;;;;;;;;;;;;;8.15;100.00;98460.31;5033326;28;20397;-72
2024/04/01 07:55:57;;;;;;;;;;;;;;;8.28;100.00;98455.91;5066125;28;19971;-74
2024/04/01 07:58:23;;;;;;;;;;;;;;;8.32;100.00;98462.47;5049326;28;20310;-74
2024/04/01 08:00:48;;;;;;;;;;;;;;;8.25;100.00;98467.84;5033264;28;19917;-74
2024/04/01 08:03:14;;;;;;;;;;;;;;;8.16;100.00;98458.47;5033144;28;20036;-74
2024/04/01 08:05:40;;;;;;;;;;;;;;;8.09;100.00;98473.75;5033011;28;19974;-74
2024/04/01 08:08:05;;;;;;;;;;;;;;;8.03;100.00;98475.41;5034082;28;19924;-74
2024/04/01 08:10:31;;;;;;;;;;;;;;;8.01;100.00;98482.84;5034602;28;20260;-73
2024/04/01 08:12:56;;;;;;;;;;;;;;;8.11;100.00;98469.00;5033202;28;20336;-74
2024/04/01 08:15:22;;;;;;;;;;;;;;;8.36;100.00;98479.72;5049529;28;19935;-74
2024/04/01 08:17:47;;;;;;;;;;;;;;;8.59;100.00;98474.63;5032824;28;19955;-73
2024/04/01 08:20:13;;;;;;;;;;;;;;;8.73;100.00;98463.78;5049934;28;20024;-72
2024/04/01 08:22:38;;;;;;;;;;;;;;;8.72;100.00;98479.06;5033001;28;20331;-72
2024/04/01 08:25:04;;;;;;;;;;;;;;;8.84;100.00;98478.34;5032963;28;19913;-74
2024/04/01 08:27:30;;;;;;;;;;;;;;;8.94;100.00;98482.16;5032877;28;19959;-72
2024/04/01 08:29:55;;;;;;;;;;;;;;;8.78;100.00;98478.16;5032917;28;19940;-72
2024/04/01 08:32:21;;;;;;;;;;;;;;;8.69;100.00;98478.69;5049282;28;19968;-73
2024/04/01 08:34:47;;;;;;;;;;;;;;;8.61;100.00;98482.47;5049380;28;20015;-73
2024/04/01 08:37:12;;;;;;;;;;;;;;;8.54;100.00;98481.69;5033261;28;19913;-73
2024/04/01 08:39:38;;;;;;;;;;;;;;;8.68;100.00;98482.38;5032584;28;20355;-72
2024/04/01 08:42:03;;;;;;;;;;;;;;;8.92;100.00;98480.75;5032437;28;20076;-72
2024/04/01 08:44:29;;;;;;;;;;;;;;;9.18;100.00;98493.03;5032753;28;19917;-72
2024/04/01 08:46:54;;;;;;;;;;;;;;;9.31;100.00;98486.72;5032112;28;19963;-74
2024/04/01 08:49:28;;;;;;;;;;;;;;;9.47;100.00;98494.16;5032289;28;20351;-74
2024/04/01 08:51:56;;;;;;;;;;;;;;;9.56;100.00;98497.41;5049325;28;19920;-76
2024/04/01 08:54:26;;;;;;;;;;;;;;;9.36;100.00;98495.75;5033038;28;19944;-76
2024/04/01 08:56:52;;;;;;;;;;;;;;;9.49;100.00;98497.47;5048740;28;19975;-75
2024/04/01 08:59:17;;;;;;;;;;;;;;;9.67;100.00;98500.13;5033243;28;20004;-75
2024/04/01 09:01:43;;;;;;;;;;;;;;;9.60;100.00;98507.44;5032635;28;19913;-75
2024/04/01 09:04:08;;;;;;;;;;;;;;;9.36;100.00;98500.28;5032626;28;19914;-76
2024/04/01 09:06:34;;;;;;;;;;;;;;;9.29;100.00;98510.25;5032555;28;19995;-75
2024/04/01 09:08:59;;;;;;;;;;;;;;;9.35;100.00;98504.84;5066210;28;19913;-75
2024/04/01 09:11:27;;;;;;;;;;;;;;;9.41;100.00;98508.50;5032590;28;19914;-75
2024/04/01 09:13:53;;;;;;;;;;;;;;;9.59;100.00;98511.16;5032202;28;19913;-76
2024/04/01 09:16:22;;;;;;;;;;;;;;;10.00;100.00;98511.47;5033775;28;19917;-75
2024/04/01 09:18:48;;;;;;;;;;;;;;;10.88;100.00;98510.81;5052244;28;19913;-75
2024/04/01 09:21:13;;;;;;;;;;;;;;;11.07;100.00;98514.22;5035575;28;19924;-75
2024/04/01 09:23:42;;;;;;;;;;;;;;;11.08;100.00;98515.84;5036395;28;19956;-75
2024/04/01 09:26:08;;;;;;;;;;;;;;;10.91;100.00;98521.09;5036738;28;19913;-74
2024/04/01 09:28:33;;;;;;;;;;;;;;;10.94;100.00;98517.94;5035575;28;20248;-75
2024/04/01 09:30:59;;;;;;;;;;;;;;;11.33;100.00;98523.69;5035800;28;20024;-75
2024/04/01 09:33:24;;;;;;;;;;;;;;;11.40;100.00;98521.66;5036487;28;19952;-75
2024/04/01 09:35:50;;;;;;;;;;;;;;;11.19;100.00;98530.34;5035944;28;20034;-75
2024/04/01 09:38:18;;;;;;;;;;;;;;;10.87;100.00;98525.28;5037607;28;20249;-75
2024/04/01 09:40:50;;;;;;;;;;;;;;;10.86;100.00;98531.72;5038956;28;19924;-75
2024/04/01 09:43:22;;;;;;;;;;;;;;;11.14;100.00;98527.53;5068738;28;19952;-74
2024/04/01 09:45:48;;;;;;;;;;;;;;;11.36;100.00;98538.53;5052045;28;19924;-73
2024/04/01 09:48:13;;;;;;;;;;;;;;;11.20;100.00;98542.75;5035564;28;19913;-74
2024/04/01 09:50:39;;;;;;;;;;;;;;;10.93;100.00;98542.38;5035994;28;19917;-74
2024/04/01 09:53:04;;;;;;;;;;;;;;;10.65;100.00;98543.03;5035453;28;20352;-74
2024/04/01 09:55:30;;;;;;;;;;;;;;;10.53;100.00;98554.59;5035317;28;19963;-73
2024/04/01 09:58:15;;;;;;;;;;;;;;;10.44;100.00;98550.56;5035014;28;19949;-73
2024/04/01 10:00:55;;;;;;;;;;;;;;;10.66;100.00;98556.22;5035068;28;20441;-73
2024/04/01 10:03:32;;;;;;;;;;;;;;;10.73;100.00;98561.50;5035236;28;20012;-73
2024/04/01 10:06:07;;;;;;;;;;;;;;;10.44;100.00;98553.25;5051346;28;20390;-73
2024/04/01 10:08:50;;;;;;;;;;;;;;;10.52;100.00;98555.59;5035176;28;20008;-74
2024/04/01 10:11:30;;;;;;;;;;;;;;;10.83;100.00;98551.03;5034728;28;20224;-74
2024/04/01 10:14:14;;;;;;;;;;;;;;;11.03;100.00;98555.25;5035591;28;19913;-74
2024/04/01 10:16:40;;;;;;;;;;;;;;;11.65;100.00;98558.28;5034830;28;19917;-74
2024/04/01 10:19:24;;;;;;;;;;;;;;;12.74;100.00;98560.13;5034667;28;20323;-74
2024/04/01 10:21:55;;;;;;;;;;;;;;;13.88;100.00;98566.16;5034810;28;20016;-74
2024/04/01 10:24:33;;;;;;;;;;;;;;;13.70;100.00;98561.84;5034820;28;19920;-74
2024/04/01 10:27:02;;;;;;;;;;;;;;;13.97;100.00;98560.06;5034166;28;20339;-73
2024/04/01 10:29:33;;;;;;;;;;;;;;;13.14;100.00;98567.22;5050780;28;19913;-73
2024/04/01 10:32:05;;;;;;;;;;;;;;;13.18;100.00;98568.38;5035272;28;19917;-74
2024/04/01 10:34:30;;;;;;;;;;;;;;;13.59;100.00;98559.00;5034612;28;19913;-73
2024/04/01 10:37:11;;;;;;;;;;;;;;;14.29;100.00;98556.66;5034347;28;19975;-74
2024/04/01 10:39:57;;;;;;;;;;;;;;;13.73;100.00;98559.47;5034763;28;20233;-74
2024/04/01 10:42:22;;;;;;;;;;;;;;;14.19;100.00;98551.13;5050453;28;19956;-74
2024/04/01 10:45:07;;;;;;;;;;;;;;;14.49;100.00;98553.31;5035257;28;19960;-74
2024/04/01 10:47:52;;;;;;;;;;;;;;;15.47;100.00;98550.34;5034192;28;19913;-74
2024/04/01 10:50:46;;;;;;;;;;;;;;;16.41;100.00;98561.34;5050336;28;19963;-74
2024/04/01 10:53:30;;;;;;;;;;;;;;;16.48;100.00;98553.75;5050798;28;19913;-74
2024/04/01 10:55:55;;;;;;;;;;;;;;;16.44;100.00;98547.25;5033957;28;19917;-72
2024/04/01 10:58:27;;;;;;;;;;;;;;;16.13;100.00;98549.88;5050431;28;19966;-74
2024/04/01 11:01:16;;;;;;;;;;;;;;;17.04;100.00;98556.56;5033967;28;19920;-74
2024/04/01 11:03:44;;;;;;;;;;;;;;;16.53;100.00;98539.38;5032942;28;19920;-74
2024/04/01 11:06:10;;;;;;;;;;;;;;;17.21;100.00;98555.47;5033925;28;20007;-74
2024/04/01 11:08:55;;;;;;;;;;;;;;;17.15;97.24;98546.50;5033894;28;20267;-74
2024/04/01 11:11:26;;;;;;;;;;;;;;;16.48;97.80;98548.31;5016940;28;20000;-74
2024/04/01 11:13:52;;;;;;;;;;;;;;;16.13;100.00;98549.88;5017119;28;20259;-74
2024/04/01 11:16:17;;;;;;;;;;;;;;;16.01;100.00;98544.69;5034363;28;19909;-74
2024/04/01 11:18:58;;;;;;;;;;;;;;;15.99;100.00;98546.03;5033135;28;20248;-73
2024/04/01 11:21:34;;;;;;;;;;;;;;;15.05;100.00;98544.91;5032966;28;19916;-73
2024/04/01 11:24:18;;;;;;;;;;;;;;;16.24;100.00;98548.81;5030626;28;25108;-73
2024/04/01 11:26:59;;;;;;;;;;;;;;;16.79;100.00;98542.97;5033391;28;19935;-73
2024/04/01 11:29:24;;;;;;;;;;;;;;;16.49;100.00;98545.34;5033351;28;19913;-73
2024/04/01 11:31:57;;;;;;;;;;;;;;;16.34;100.00;98548.03;5033017;28;19916;-73
2024/04/01 11:34:24;;;;;;;;;;;;;;;16.53;100.00;98545.63;5033260;28;19948;-73
2024/04/01 11:36:50;;;;;;;;;;;;;;;16.40;100.00;98546.13;5033255;28;19913;-73
2024/04/01 11:39:16;;;;;;;;;;;;;;;15.61;100.00;98547.97;5032511;28;19920;-73
2024/04/01 11:41:45;;;;;;;;;;;;;;;15.88;100.00;98550.59;5033827;28;19976;-73
2024/04/01 11:44:14;;;;;;;;;;;;;;;15.68;94.68;98543.13;5034533;28;20363;-73
2024/04/01 11:46:43;;;;;;;143.70;60.90;;;;;;;16.47;86.59;98552.94;5032514;28;20860;-73
2024/04/01 11:49:08;;;;;;;3.65;2.40;;;;;;;16.46;88.03;98550.50;5000061;28;20040;-73
2024/04/01 11:51:35;;;;;;;2.72;1.73;;;;;;;16.66;78.37;98550.53;5000159;28;20029;-73
2024/04/01 11:54:01;;;;;;;3.20;2.10;;;;;;;16.49;70.93;98552.69;5032863;28;20033;-73
2024/04/01 11:56:39;;;;;;;2.83;1.63;;;;;;;16.25;71.88;98544.22;4999749;28;20063;-73
2024/04/01 11:59:10;;;;;;;2.28;1.73;;;;;;;15.11;71.66;98552.81;4999685;28;20041;-72
2024/04/01 12:01:38;;;;;;;2.65;1.90;;;;;;;16.11;71.88;98556.63;5032056;28;20037;-73
2024/04/01 12:04:05;;;;;;;3.15;2.28;;;;;;;17.27;63.48;98559.78;5016432;28;20033;-73
2024/04/01 12:06:33;;;;;;;3.58;2.22;;;;;;;16.84;67.32;98559.28;5032244;28;20100;-73
2024/04/01 12:09:00;;;;;;;2.13;1.58;;;;;;;16.30;71.27;98562.38;4999782;28;20030;-73
2024/04/01 12:11:30;;;;;;;3.35;2.78;;;;;;;16.61;61.05;98572.22;4999846;28;20475;-73
2024/04/01 12:13:56;;;;;;;2.28;1.60;;;;;;;16.54;63.62;98566.25;5033173;28;20460;-74
2024/04/01 12:16:22;;;;;;;3.28;2.05;;;;;;;15.75;67.71;98568.16;5000018;28;20029;-73
2024/04/01 12:18:50;;;;;;;2.88;1.70;;;;;;;16.86;67.71;98563.34;5015494;28;20032;-73
2024/04/01 12:21:21;;;;;;;2.22;1.80;;;;;;;16.90;64.64;98555.47;5000188;28;20032;-73
2024/04/01 12:23:49;;;;;;;2.63;1.75;;;;;;;16.84;60.14;98554.66;5016524;28;20029;-73
2024/04/01 12:26:16;;;;;;;2.78;1.65;;;;;;;16.13;66.41;98568.03;5015801;28;20456;-73
2024/04/01 12:28:43;;;;;;;3.13;2.03;;;;;;;15.76;66.43;98569.75;5016275;28;20032;-74
2024/04/01 12:31:15;;;;;;;;;;;;;;;16.59;64.77;98571.69;5033776;28;20055;-73
2024/04/01 12:33:42;;;;;;;2.50;1.05;;;;;;;16.22;61.82;98574.56;5032922;28;19956;-73
2024/04/01 12:36:10;;;;;;;1.95;1.23;;;;;;;16.51;62.36;98574.09;5015819;28;20040;-73
2024/04/01 12:38:41;;;;;;;2.08;1.55;;;;;;;17.59;59.43;98579.28;5000153;28;20026;-73